sensor_id;sensor_type;location;lat;lon;timestamp;temperature;humidity
18773;DHT22;9515;50.810;4.418;2022-08-11T00:01:49;24.10;99.90
18773;DHT22;9515;50.810;4.418;2022-08-11T00:04:16;24.00;99.90
18773;DHT22;9515;50.810;4.418;2022-08-11T00:06:44;23.90;99.90
18773;DHT22;9515;50.810;4.418;2022-08-11T00:09:16;23.90;99.90
18773;DHT22;9515;50.810;4.418;2022-08-11T00:11:50;23.80;99.90
18773;DHT22;9515;50.810;4.418;2022-08-11T00:14:27;23.80;99.90
18773;DHT22;9515;50.810;4.418;2022-08-11T00:17:01;23.70;99.90
18773;DHT22;9515;50.810;4.418;2022-08-11T00:19:33;23.70;99.90
18773;DHT22;9515;50.810;4.418;2022-08-11T00:22:00;23.80;99.90
18773;DHT22;9515;50.810;4.418;2022-08-11T00:24:34;23.70;99.90
18773;DHT22;9515;50.810;4.418;2022-08-11T00:27:01;23.60;99.90
18773;DHT22;9515;50.810;4.418;2022-08-11T00:29:28;23.60;99.90
18773;DHT22;9515;50.810;4.418;2022-08-11T00:31:55;23.60;99.90
18773;DHT22;9515;50.810;4.418;2022-08-11T00:34:24;23.50;99.90
18773;DHT22;9515;50.810;4.418;2022-08-11T00:39:20;23.40;99.90
18773;DHT22;9515;50.810;4.418;2022-08-11T00:47:14;23.30;99.90
18773;DHT22;9515;50.810;4.418;2022-08-11T00:49:44;23.30;99.90
18773;DHT22;9515;50.810;4.418;2022-08-11T01:00:19;23.20;99.90
18773;DHT22;9515;50.810;4.418;2022-08-11T01:11:01;23.10;99.90
18773;DHT22;9515;50.810;4.418;2022-08-11T01:13:47;23.00;99.90
18773;DHT22;9515;50.810;4.418;2022-08-11T01:19:56;22.80;99.90
18773;DHT22;9515;50.810;4.418;2022-08-11T01:45:36;22.50;99.90
18773;DHT22;9515;50.810;4.418;2022-08-11T01:48:15;22.50;99.90
18773;DHT22;9515;50.810;4.418;2022-08-11T01:51:04;22.50;99.90
18773;DHT22;9515;50.810;4.418;2022-08-11T02:15:37;22.10;99.90
18773;DHT22;9515;50.810;4.418;2022-08-11T02:18:12;22.00;99.90
18773;DHT22;9515;50.810;4.418;2022-08-11T02:21:02;21.90;99.90
18773;DHT22;9515;50.810;4.418;2022-08-11T02:23:57;21.90;99.90
18773;DHT22;9515;50.810;4.418;2022-08-11T02:26:42;22.00;99.90
18773;DHT22;9515;50.810;4.418;2022-08-11T02:29:22;21.90;99.90
18773;DHT22;9515;50.810;4.418;2022-08-11T02:32:18;21.70;99.90
18773;DHT22;9515;50.810;4.418;2022-08-11T02:35:19;21.60;99.90
18773;DHT22;9515;50.810;4.418;2022-08-11T02:37:53;21.70;99.90
18773;DHT22;9515;50.810;4.418;2022-08-11T02:49:11;21.50;99.90
18773;DHT22;9515;50.810;4.418;2022-08-11T02:52:40;21.50;99.90
18773;DHT22;9515;50.810;4.418;2022-08-11T02:55:21;21.50;99.90
18773;DHT22;9515;50.810;4.418;2022-08-11T02:57:58;21.50;99.90
18773;DHT22;9515;50.810;4.418;2022-08-11T03:00:29;21.50;99.90
18773;DHT22;9515;50.810;4.418;2022-08-11T03:03:14;21.50;99.90
18773;DHT22;9515;50.810;4.418;2022-08-11T03:08:59;21.40;99.90
18773;DHT22;9515;50.810;4.418;2022-08-11T03:25:41;21.30;99.90
18773;DHT22;9515;50.810;4.418;2022-08-11T03:28:26;21.30;99.90
18773;DHT22;9515;50.810;4.418;2022-08-11T03:31:09;21.20;99.90
18773;DHT22;9515;50.810;4.418;2022-08-11T03:33:45;21.10;99.90
18773;DHT22;9515;50.810;4.418;2022-08-11T03:45:25;21.00;99.90
18773;DHT22;9515;50.810;4.418;2022-08-11T03:48:24;21.00;99.90
18773;DHT22;9515;50.810;4.418;2022-08-11T03:51:21;21.00;99.90
18773;DHT22;9515;50.810;4.418;2022-08-11T03:57:25;21.00;99.90
18773;DHT22;9515;50.810;4.418;2022-08-11T04:05:34;20.90;99.90
18773;DHT22;9515;50.810;4.418;2022-08-11T04:08:15;20.80;99.90
18773;DHT22;9515;50.810;4.418;2022-08-11T04:11:05;20.80;99.90
18773;DHT22;9515;50.810;4.418;2022-08-11T04:23:17;20.70;99.90
18773;DHT22;9515;50.810;4.418;2022-08-11T04:49:01;20.90;99.90
18773;DHT22;9515;50.810;4.418;2022-08-11T04:55:19;21.00;99.90
18773;DHT22;9515;50.810;4.418;2022-08-11T05:01:27;21.40;99.90
18773;DHT22;9515;50.810;4.418;2022-08-11T05:10:09;22.40;99.90
18773;DHT22;9515;50.810;4.418;2022-08-11T05:15:28;23.10;99.90
18773;DHT22;9515;50.810;4.418;2022-08-11T05:18:16;23.50;99.90
18773;DHT22;9515;50.810;4.418;2022-08-11T05:21:08;23.90;99.90
18773;DHT22;9515;50.810;4.418;2022-08-11T05:24:12;24.10;99.90
18773;DHT22;9515;50.810;4.418;2022-08-11T05:27:02;24.50;99.90
18773;DHT22;9515;50.810;4.418;2022-08-11T05:30:00;24.90;99.90
18773;DHT22;9515;50.810;4.418;2022-08-11T05:32:53;25.40;99.90
18773;DHT22;9515;50.810;4.418;2022-08-11T05:35:47;25.90;99.90
18773;DHT22;9515;50.810;4.418;2022-08-11T05:38:42;26.20;99.90
18773;DHT22;9515;50.810;4.418;2022-08-11T05:41:32;26.30;99.90
18773;DHT22;9515;50.810;4.418;2022-08-11T05:44:20;26.70;99.90
18773;DHT22;9515;50.810;4.418;2022-08-11T05:47:04;26.80;99.90
18773;DHT22;9515;50.810;4.418;2022-08-11T05:49:49;27.20;99.90
18773;DHT22;9515;50.810;4.418;2022-08-11T05:52:35;27.50;99.90
18773;DHT22;9515;50.810;4.418;2022-08-11T05:55:21;27.90;99.90
18773;DHT22;9515;50.810;4.418;2022-08-11T05:58:07;28.30;99.90
18773;DHT22;9515;50.810;4.418;2022-08-11T06:00:43;28.70;99.90
18773;DHT22;9515;50.810;4.418;2022-08-11T06:03:10;29.20;99.90
18773;DHT22;9515;50.810;4.418;2022-08-11T06:05:38;29.50;99.90
18773;DHT22;9515;50.810;4.418;2022-08-11T06:08:07;29.60;99.90
18773;DHT22;9515;50.810;4.418;2022-08-11T06:10:38;29.60;99.90
18773;DHT22;9515;50.810;4.418;2022-08-11T06:13:06;29.80;99.90
18773;DHT22;9515;50.810;4.418;2022-08-11T06:15:34;30.30;99.90
18773;DHT22;9515;50.810;4.418;2022-08-11T06:18:09;30.80;99.90
18773;DHT22;9515;50.810;4.418;2022-08-11T06:20:48;31.00;99.90
18773;DHT22;9515;50.810;4.418;2022-08-11T06:23:15;31.30;99.90
18773;DHT22;9515;50.810;4.418;2022-08-11T06:25:49;31.40;99.90
18773;DHT22;9515;50.810;4.418;2022-08-11T06:28:16;31.40;99.90
18773;DHT22;9515;50.810;4.418;2022-08-11T06:30:45;31.70;99.60
18773;DHT22;9515;50.810;4.418;2022-08-11T06:33:17;31.60;99.20
18773;DHT22;9515;50.810;4.418;2022-08-11T06:38:48;31.90;98.40
18773;DHT22;9515;50.810;4.418;2022-08-11T06:41:22;31.80;98.10
18773;DHT22;9515;50.810;4.418;2022-08-11T06:46:33;32.00;98.00
18773;DHT22;9515;50.810;4.418;2022-08-11T06:49:13;32.10;97.20
18773;DHT22;9515;50.810;4.418;2022-08-11T06:52:10;32.40;97.50
18773;DHT22;9515;50.810;4.418;2022-08-11T06:54:41;32.20;97.00
18773;DHT22;9515;50.810;4.418;2022-08-11T06:57:12;32.50;96.50
18773;DHT22;9515;50.810;4.418;2022-08-11T07:00:00;32.80;96.40
18773;DHT22;9515;50.810;4.418;2022-08-11T07:02:51;32.50;96.50
18773;DHT22;9515;50.810;4.418;2022-08-11T07:14:33;32.00;96.80
18773;DHT22;9515;50.810;4.418;2022-08-11T07:17:23;32.20;96.80
18773;DHT22;9515;50.810;4.418;2022-08-11T07:19:54;32.50;95.90
18773;DHT22;9515;50.810;4.418;2022-08-11T07:22:40;32.40;95.70
18773;DHT22;9515;50.810;4.418;2022-08-11T07:25:28;32.70;96.00
18773;DHT22;9515;50.810;4.418;2022-08-11T07:28:25;33.30;95.30
18773;DHT22;9515;50.810;4.418;2022-08-11T07:31:13;33.80;95.60
18773;DHT22;9515;50.810;4.418;2022-08-11T07:33:41;34.10;94.90
18773;DHT22;9515;50.810;4.418;2022-08-11T07:36:09;34.00;94.50
18773;DHT22;9515;50.810;4.418;2022-08-11T07:38:43;33.50;94.50
18773;DHT22;9515;50.810;4.418;2022-08-11T07:41:15;33.20;94.40
18773;DHT22;9515;50.810;4.418;2022-08-11T07:43:50;33.30;94.70
18773;DHT22;9515;50.810;4.418;2022-08-11T07:46:17;33.40;94.80
18773;DHT22;9515;50.810;4.418;2022-08-11T07:49:03;33.90;94.60
18773;DHT22;9515;50.810;4.418;2022-08-11T07:51:50;34.20;94.00
18773;DHT22;9515;50.810;4.418;2022-08-11T07:54:35;34.60;94.20
18773;DHT22;9515;50.810;4.418;2022-08-11T07:57:04;34.90;93.60
18773;DHT22;9515;50.810;4.418;2022-08-11T07:59:51;35.10;93.50
18773;DHT22;9515;50.810;4.418;2022-08-11T08:02:36;34.90;93.20
18773;DHT22;9515;50.810;4.418;2022-08-11T08:05:20;35.20;93.30
18773;DHT22;9515;50.810;4.418;2022-08-11T08:08:07;35.60;93.00
18773;DHT22;9515;50.810;4.418;2022-08-11T08:10:54;35.80;93.30
18773;DHT22;9515;50.810;4.418;2022-08-11T08:13:39;36.10;92.60
18773;DHT22;9515;50.810;4.418;2022-08-11T08:16:24;36.10;92.60
18773;DHT22;9515;50.810;4.418;2022-08-11T08:19:11;36.30;92.50
18773;DHT22;9515;50.810;4.418;2022-08-11T08:21:39;36.70;92.60
18773;DHT22;9515;50.810;4.418;2022-08-11T08:24:05;36.60;92.10
18773;DHT22;9515;50.810;4.418;2022-08-11T08:26:32;36.80;91.60
18773;DHT22;9515;50.810;4.418;2022-08-11T08:29:18;37.00;91.50
18773;DHT22;9515;50.810;4.418;2022-08-11T08:32:03;37.00;91.60
18773;DHT22;9515;50.810;4.418;2022-08-11T08:34:29;37.40;90.70
18773;DHT22;9515;50.810;4.418;2022-08-11T08:36:56;37.40;90.90
18773;DHT22;9515;50.810;4.418;2022-08-11T08:39:22;37.40;91.50
18773;DHT22;9515;50.810;4.418;2022-08-11T08:41:56;37.50;90.60
18773;DHT22;9515;50.810;4.418;2022-08-11T08:44:24;37.30;91.10
18773;DHT22;9515;50.810;4.418;2022-08-11T08:46:55;37.10;90.80
18773;DHT22;9515;50.810;4.418;2022-08-11T08:49:25;37.70;91.00
18773;DHT22;9515;50.810;4.418;2022-08-11T08:51:57;37.90;90.80
18773;DHT22;9515;50.810;4.418;2022-08-11T08:54:34;38.30;89.70
18773;DHT22;9515;50.810;4.418;2022-08-11T08:57:03;38.50;89.90
18773;DHT22;9515;50.810;4.418;2022-08-11T08:59:31;38.70;90.30
18773;DHT22;9515;50.810;4.418;2022-08-11T09:02:04;39.10;87.40
18773;DHT22;9515;50.810;4.418;2022-08-11T09:04:31;39.20;87.20
18773;DHT22;9515;50.810;4.418;2022-08-11T09:07:07;39.20;86.70
18773;DHT22;9515;50.810;4.418;2022-08-11T09:09:33;39.20;86.50
18773;DHT22;9515;50.810;4.418;2022-08-11T09:12:00;38.80;86.60
18773;DHT22;9515;50.810;4.418;2022-08-11T09:14:36;38.50;85.70
18773;DHT22;9515;50.810;4.418;2022-08-11T09:17:47;38.40;86.50
18773;DHT22;9515;50.810;4.418;2022-08-11T09:20:23;38.30;87.30
18773;DHT22;9515;50.810;4.418;2022-08-11T09:22:54;38.60;86.40
18773;DHT22;9515;50.810;4.418;2022-08-11T09:25:40;38.80;86.70
18773;DHT22;9515;50.810;4.418;2022-08-11T09:28:27;39.20;85.10
18773;DHT22;9515;50.810;4.418;2022-08-11T09:30:54;39.60;84.20
18773;DHT22;9515;50.810;4.418;2022-08-11T09:33:22;39.50;83.90
18773;DHT22;9515;50.810;4.418;2022-08-11T09:35:50;39.40;83.30
18773;DHT22;9515;50.810;4.418;2022-08-11T09:38:18;39.60;81.90
18773;DHT22;9515;50.810;4.418;2022-08-11T09:41:05;39.60;83.00
18773;DHT22;9515;50.810;4.418;2022-08-11T09:43:34;39.90;83.00
18773;DHT22;9515;50.810;4.418;2022-08-11T09:46:25;39.90;82.70
18773;DHT22;9515;50.810;4.418;2022-08-11T09:48:54;40.20;82.00
18773;DHT22;9515;50.810;4.418;2022-08-11T09:51:24;40.30;81.30
18773;DHT22;9515;50.810;4.418;2022-08-11T09:53:51;40.10;81.70
18773;DHT22;9515;50.810;4.418;2022-08-11T09:56:21;39.70;81.90
18773;DHT22;9515;50.810;4.418;2022-08-11T09:59:07;39.90;80.90
18773;DHT22;9515;50.810;4.418;2022-08-11T10:01:42;40.30;80.50
18773;DHT22;9515;50.810;4.418;2022-08-11T10:04:17;40.30;80.30
18773;DHT22;9515;50.810;4.418;2022-08-11T10:06:48;40.50;80.90
18773;DHT22;9515;50.810;4.418;2022-08-11T10:09:27;40.70;79.80
18773;DHT22;9515;50.810;4.418;2022-08-11T10:11:57;41.20;79.80
18773;DHT22;9515;50.810;4.418;2022-08-11T10:14:23;41.40;78.30
18773;DHT22;9515;50.810;4.418;2022-08-11T10:17:09;41.40;78.30
18773;DHT22;9515;50.810;4.418;2022-08-11T10:19:37;41.20;79.40
18773;DHT22;9515;50.810;4.418;2022-08-11T10:22:04;41.40;79.20
18773;DHT22;9515;50.810;4.418;2022-08-11T10:24:50;42.20;78.30
18773;DHT22;9515;50.810;4.418;2022-08-11T10:27:35;42.20;77.80
18773;DHT22;9515;50.810;4.418;2022-08-11T10:30:01;42.40;77.20
18773;DHT22;9515;50.810;4.418;2022-08-11T10:32:46;42.90;76.90
18773;DHT22;9515;50.810;4.418;2022-08-11T10:35:33;43.00;76.10
18773;DHT22;9515;50.810;4.418;2022-08-11T10:38:00;41.60;75.40
18773;DHT22;9515;50.810;4.418;2022-08-11T10:40:25;41.10;77.10
18773;DHT22;9515;50.810;4.418;2022-08-11T10:42:58;40.90;77.40
18773;DHT22;9515;50.810;4.418;2022-08-11T10:45:30;41.50;78.70
18773;DHT22;9515;50.810;4.418;2022-08-11T10:48:15;42.40;77.30
18773;DHT22;9515;50.810;4.418;2022-08-11T10:50:45;42.40;77.10
18773;DHT22;9515;50.810;4.418;2022-08-11T10:53:30;42.20;76.00
18773;DHT22;9515;50.810;4.418;2022-08-11T10:56:16;42.70;75.60
18773;DHT22;9515;50.810;4.418;2022-08-11T10:59:01;43.30;74.70
18773;DHT22;9515;50.810;4.418;2022-08-11T11:01:33;43.20;74.00
18773;DHT22;9515;50.810;4.418;2022-08-11T11:04:03;42.70;73.60
18773;DHT22;9515;50.810;4.418;2022-08-11T11:09:27;42.80;74.20
18773;DHT22;9515;50.810;4.418;2022-08-11T11:12:22;42.80;73.80
18773;DHT22;9515;50.810;4.418;2022-08-11T11:15:07;43.00;73.50
18773;DHT22;9515;50.810;4.418;2022-08-11T11:18:05;43.60;73.20
18773;DHT22;9515;50.810;4.418;2022-08-11T11:20:40;43.70;72.60
18773;DHT22;9515;50.810;4.418;2022-08-11T11:23:16;43.80;72.80
18773;DHT22;9515;50.810;4.418;2022-08-11T11:26:24;44.20;71.60
18773;DHT22;9515;50.810;4.418;2022-08-11T11:31:52;44.10;72.10
18773;DHT22;9515;50.810;4.418;2022-08-11T11:34:46;43.90;71.80
18773;DHT22;9515;50.810;4.418;2022-08-11T11:37:16;43.30;73.00
18773;DHT22;9515;50.810;4.418;2022-08-11T11:39:43;42.60;72.70
18773;DHT22;9515;50.810;4.418;2022-08-11T11:42:10;42.50;72.60
18773;DHT22;9515;50.810;4.418;2022-08-11T11:44:42;43.30;73.60
18773;DHT22;9515;50.810;4.418;2022-08-11T11:47:11;43.80;72.30
18773;DHT22;9515;50.810;4.418;2022-08-11T11:49:37;43.70;72.60
18773;DHT22;9515;50.810;4.418;2022-08-11T11:52:08;43.80;71.10
18773;DHT22;9515;50.810;4.418;2022-08-11T11:54:38;43.80;71.60
18773;DHT22;9515;50.810;4.418;2022-08-11T11:57:05;44.30;71.90
18773;DHT22;9515;50.810;4.418;2022-08-11T11:59:56;44.10;68.40
18773;DHT22;9515;50.810;4.418;2022-08-11T12:02:41;43.90;70.00
18773;DHT22;9515;50.810;4.418;2022-08-11T12:05:09;44.20;69.80
18773;DHT22;9515;50.810;4.418;2022-08-11T12:07:35;45.10;69.50
18773;DHT22;9515;50.810;4.418;2022-08-11T12:10:20;46.10;68.30
18773;DHT22;9515;50.810;4.418;2022-08-11T12:12:47;45.30;68.20
18773;DHT22;9515;50.810;4.418;2022-08-11T12:15:32;45.50;68.70
18773;DHT22;9515;50.810;4.418;2022-08-11T12:17:59;45.10;69.50
18773;DHT22;9515;50.810;4.418;2022-08-11T12:20:26;45.50;68.30
18773;DHT22;9515;50.810;4.418;2022-08-11T12:22:54;46.20;67.70
18773;DHT22;9515;50.810;4.418;2022-08-11T12:25:39;47.20;67.30
18773;DHT22;9515;50.810;4.418;2022-08-11T12:28:24;47.20;66.90
18773;DHT22;9515;50.810;4.418;2022-08-11T12:30:50;46.70;66.90
18773;DHT22;9515;50.810;4.418;2022-08-11T12:33:17;46.60;67.60
18773;DHT22;9515;50.810;4.418;2022-08-11T12:35:45;46.60;67.60
18773;DHT22;9515;50.810;4.418;2022-08-11T12:38:13;46.80;66.90
18773;DHT22;9515;50.810;4.418;2022-08-11T12:40:41;46.50;66.40
18773;DHT22;9515;50.810;4.418;2022-08-11T12:43:28;46.60;67.40
18773;DHT22;9515;50.810;4.418;2022-08-11T12:46:21;46.30;65.20
18773;DHT22;9515;50.810;4.418;2022-08-11T12:48:53;46.30;65.00
18773;DHT22;9515;50.810;4.418;2022-08-11T12:51:41;45.80;65.10
18773;DHT22;9515;50.810;4.418;2022-08-11T12:57:01;46.50;65.10
18773;DHT22;9515;50.810;4.418;2022-08-11T12:59:47;47.20;64.10
18773;DHT22;9515;50.810;4.418;2022-08-11T13:02:33;47.90;63.20
18773;DHT22;9515;50.810;4.418;2022-08-11T13:05:17;47.70;63.30
18773;DHT22;9515;50.810;4.418;2022-08-11T13:07:44;48.00;64.30
18773;DHT22;9515;50.810;4.418;2022-08-11T13:10:15;48.20;63.50
18773;DHT22;9515;50.810;4.418;2022-08-11T13:13:06;46.90;64.20
18773;DHT22;9515;50.810;4.418;2022-08-11T13:15:33;46.30;64.40
18773;DHT22;9515;50.810;4.418;2022-08-11T13:18:01;46.20;64.80
18773;DHT22;9515;50.810;4.418;2022-08-11T13:20:28;46.10;64.80
18773;DHT22;9515;50.810;4.418;2022-08-11T13:22:56;46.50;64.90
18773;DHT22;9515;50.810;4.418;2022-08-11T13:25:25;46.90;65.00
18773;DHT22;9515;50.810;4.418;2022-08-11T13:27:54;47.20;64.10
18773;DHT22;9515;50.810;4.418;2022-08-11T13:30:24;47.20;63.80
18773;DHT22;9515;50.810;4.418;2022-08-11T13:33:08;46.70;64.80
18773;DHT22;9515;50.810;4.418;2022-08-11T13:35:35;46.90;64.90
18773;DHT22;9515;50.810;4.418;2022-08-11T13:38:02;47.80;64.50
18773;DHT22;9515;50.810;4.418;2022-08-11T13:40:30;47.20;64.70
18773;DHT22;9515;50.810;4.418;2022-08-11T13:42:57;46.40;64.10
18773;DHT22;9515;50.810;4.418;2022-08-11T13:45:25;45.30;65.00
18773;DHT22;9515;50.810;4.418;2022-08-11T13:47:55;44.40;66.80
18773;DHT22;9515;50.810;4.418;2022-08-11T13:50:23;43.20;67.30
18773;DHT22;9515;50.810;4.418;2022-08-11T13:53:14;43.80;66.70
18773;DHT22;9515;50.810;4.418;2022-08-11T13:55:42;45.00;66.20
18773;DHT22;9515;50.810;4.418;2022-08-11T13:58:09;46.30;65.00
18773;DHT22;9515;50.810;4.418;2022-08-11T14:00:36;47.40;64.20
18773;DHT22;9515;50.810;4.418;2022-08-11T14:03:02;47.70;64.50
18773;DHT22;9515;50.810;4.418;2022-08-11T14:05:35;47.30;63.00
18773;DHT22;9515;50.810;4.418;2022-08-11T14:08:03;46.80;64.20
18773;DHT22;9515;50.810;4.418;2022-08-11T14:10:33;45.90;64.40
18773;DHT22;9515;50.810;4.418;2022-08-11T14:13:15;45.60;64.70
18773;DHT22;9515;50.810;4.418;2022-08-11T14:16:11;46.10;64.80
18773;DHT22;9515;50.810;4.418;2022-08-11T14:18:46;46.70;64.00
18773;DHT22;9515;50.810;4.418;2022-08-11T14:21:16;45.90;64.20
18773;DHT22;9515;50.810;4.418;2022-08-11T14:24:02;45.30;65.10
18773;DHT22;9515;50.810;4.418;2022-08-11T14:26:29;44.50;65.60
18773;DHT22;9515;50.810;4.418;2022-08-11T14:29:05;43.60;66.90
18773;DHT22;9515;50.810;4.418;2022-08-11T14:31:34;42.00;68.50
18773;DHT22;9515;50.810;4.418;2022-08-11T14:34:04;41.10;69.80
18773;DHT22;9515;50.810;4.418;2022-08-11T14:36:34;40.00;69.70
18773;DHT22;9515;50.810;4.418;2022-08-11T14:39:12;38.80;71.80
18773;DHT22;9515;50.810;4.418;2022-08-11T14:41:44;37.80;72.80
18773;DHT22;9515;50.810;4.418;2022-08-11T14:44:30;37.10;73.20
18773;DHT22;9515;50.810;4.418;2022-08-11T14:47:17;36.70;74.80
18773;DHT22;9515;50.810;4.418;2022-08-11T14:49:44;36.80;74.50
18773;DHT22;9515;50.810;4.418;2022-08-11T14:52:12;36.70;74.10
18773;DHT22;9515;50.810;4.418;2022-08-11T14:54:41;36.80;74.10
18773;DHT22;9515;50.810;4.418;2022-08-11T14:57:26;36.50;73.70
18773;DHT22;9515;50.810;4.418;2022-08-11T14:59:54;36.20;73.90
18773;DHT22;9515;50.810;4.418;2022-08-11T15:02:22;36.10;74.50
18773;DHT22;9515;50.810;4.418;2022-08-11T15:05:07;35.70;74.00
18773;DHT22;9515;50.810;4.418;2022-08-11T15:07:33;35.10;74.40
18773;DHT22;9515;50.810;4.418;2022-08-11T15:10:02;35.10;75.70
18773;DHT22;9515;50.810;4.418;2022-08-11T15:12:28;35.00;74.80
18773;DHT22;9515;50.810;4.418;2022-08-11T15:14:56;34.80;76.60
18773;DHT22;9515;50.810;4.418;2022-08-11T15:17:41;34.50;75.30
18773;DHT22;9515;50.810;4.418;2022-08-11T15:20:14;34.80;76.60
18773;DHT22;9515;50.810;4.418;2022-08-11T15:22:59;34.60;76.90
18773;DHT22;9515;50.810;4.418;2022-08-11T15:25:47;34.60;77.20
18773;DHT22;9515;50.810;4.418;2022-08-11T15:28:15;34.40;77.40
18773;DHT22;9515;50.810;4.418;2022-08-11T15:31:02;34.30;77.70
18773;DHT22;9515;50.810;4.418;2022-08-11T15:33:51;34.50;77.50
18773;DHT22;9515;50.810;4.418;2022-08-11T15:36:36;34.70;76.90
18773;DHT22;9515;50.810;4.418;2022-08-11T15:39:24;34.80;76.60
18773;DHT22;9515;50.810;4.418;2022-08-11T15:42:06;34.90;75.90
18773;DHT22;9515;50.810;4.418;2022-08-11T15:45:02;35.00;75.80
18773;DHT22;9515;50.810;4.418;2022-08-11T15:47:58;34.90;76.10
18773;DHT22;9515;50.810;4.418;2022-08-11T15:50:30;34.90;77.30
18773;DHT22;9515;50.810;4.418;2022-08-11T15:53:03;34.60;76.70
18773;DHT22;9515;50.810;4.418;2022-08-11T15:55:34;34.70;77.30
18773;DHT22;9515;50.810;4.418;2022-08-11T15:58:03;34.70;77.60
18773;DHT22;9515;50.810;4.418;2022-08-11T16:00:49;34.70;77.80
18773;DHT22;9515;50.810;4.418;2022-08-11T16:03:48;34.60;77.40
18773;DHT22;9515;50.810;4.418;2022-08-11T16:06:39;34.50;75.90
18773;DHT22;9515;50.810;4.418;2022-08-11T16:09:07;34.40;76.10
18773;DHT22;9515;50.810;4.418;2022-08-11T16:11:33;34.20;76.10
18773;DHT22;9515;50.810;4.418;2022-08-11T16:14:02;34.00;75.50
18773;DHT22;9515;50.810;4.418;2022-08-11T16:16:59;34.00;75.80
18773;DHT22;9515;50.810;4.418;2022-08-11T16:19:27;34.10;74.80
18773;DHT22;9515;50.810;4.418;2022-08-11T16:21:59;33.90;74.70
18773;DHT22;9515;50.810;4.418;2022-08-11T16:24:27;33.80;75.20
18773;DHT22;9515;50.810;4.418;2022-08-11T16:26:54;33.80;74.90
18773;DHT22;9515;50.810;4.418;2022-08-11T16:29:22;33.90;74.80
18773;DHT22;9515;50.810;4.418;2022-08-11T16:31:50;34.00;74.40
18773;DHT22;9515;50.810;4.418;2022-08-11T16:34:36;33.90;73.70
18773;DHT22;9515;50.810;4.418;2022-08-11T16:37:22;34.10;73.30
18773;DHT22;9515;50.810;4.418;2022-08-11T16:40:08;34.00;73.20
18773;DHT22;9515;50.810;4.418;2022-08-11T16:42:36;34.20;74.70
18773;DHT22;9515;50.810;4.418;2022-08-11T16:45:21;33.90;74.50
18773;DHT22;9515;50.810;4.418;2022-08-11T16:48:07;33.70;75.20
18773;DHT22;9515;50.810;4.418;2022-08-11T16:50:34;33.60;74.90
18773;DHT22;9515;50.810;4.418;2022-08-11T16:53:00;33.40;75.70
18773;DHT22;9515;50.810;4.418;2022-08-11T16:55:26;33.20;74.60
18773;DHT22;9515;50.810;4.418;2022-08-11T16:57:57;33.30;74.70
18773;DHT22;9515;50.810;4.418;2022-08-11T17:00:43;33.30;75.00
18773;DHT22;9515;50.810;4.418;2022-08-11T17:03:10;33.20;75.70
18773;DHT22;9515;50.810;4.418;2022-08-11T17:05:55;33.20;75.70
18773;DHT22;9515;50.810;4.418;2022-08-11T17:08:46;33.20;76.10
18773;DHT22;9515;50.810;4.418;2022-08-11T17:11:45;33.00;76.90
18773;DHT22;9515;50.810;4.418;2022-08-11T17:14:51;32.80;77.10
18773;DHT22;9515;50.810;4.418;2022-08-11T17:17:29;32.80;77.70
18773;DHT22;9515;50.810;4.418;2022-08-11T17:20:00;32.60;76.10
18773;DHT22;9515;50.810;4.418;2022-08-11T17:22:28;32.80;76.70
18773;DHT22;9515;50.810;4.418;2022-08-11T17:25:15;32.60;77.10
18773;DHT22;9515;50.810;4.418;2022-08-11T17:27:42;32.60;77.10
18773;DHT22;9515;50.810;4.418;2022-08-11T17:30:09;32.60;77.90
18773;DHT22;9515;50.810;4.418;2022-08-11T17:32:42;32.60;77.50
18773;DHT22;9515;50.810;4.418;2022-08-11T17:35:31;32.60;77.80
18773;DHT22;9515;50.810;4.418;2022-08-11T17:38:10;32.30;78.60
18773;DHT22;9515;50.810;4.418;2022-08-11T17:40:39;32.40;78.90
18773;DHT22;9515;50.810;4.418;2022-08-11T17:43:26;32.50;78.30
18773;DHT22;9515;50.810;4.418;2022-08-11T17:46:11;32.30;78.60
18773;DHT22;9515;50.810;4.418;2022-08-11T17:49:02;32.10;78.80
18773;DHT22;9515;50.810;4.418;2022-08-11T17:51:29;32.10;78.60
18773;DHT22;9515;50.810;4.418;2022-08-11T17:54:14;32.10;78.70
18773;DHT22;9515;50.810;4.418;2022-08-11T17:56:59;32.10;79.20
18773;DHT22;9515;50.810;4.418;2022-08-11T17:59:44;32.00;79.10
18773;DHT22;9515;50.810;4.418;2022-08-11T18:02:28;32.00;79.50
18773;DHT22;9515;50.810;4.418;2022-08-11T18:05:15;32.00;79.70
18773;DHT22;9515;50.810;4.418;2022-08-11T18:07:45;32.20;79.50
18773;DHT22;9515;50.810;4.418;2022-08-11T18:10:32;32.20;79.60
18773;DHT22;9515;50.810;4.418;2022-08-11T18:13:19;32.20;79.50
18773;DHT22;9515;50.810;4.418;2022-08-11T18:16:04;32.40;80.00
18773;DHT22;9515;50.810;4.418;2022-08-11T18:18:48;32.20;80.10
18773;DHT22;9515;50.810;4.418;2022-08-11T18:21:34;32.30;80.30
18773;DHT22;9515;50.810;4.418;2022-08-11T18:24:22;32.20;80.60
18773;DHT22;9515;50.810;4.418;2022-08-11T18:27:09;32.30;80.60
18773;DHT22;9515;50.810;4.418;2022-08-11T18:29:57;32.10;80.00
18773;DHT22;9515;50.810;4.418;2022-08-11T18:32:45;32.00;80.30
18773;DHT22;9515;50.810;4.418;2022-08-11T18:35:31;31.90;80.40
18773;DHT22;9515;50.810;4.418;2022-08-11T18:38:17;31.80;80.90
18773;DHT22;9515;50.810;4.418;2022-08-11T18:41:04;31.80;81.30
18773;DHT22;9515;50.810;4.418;2022-08-11T18:43:50;31.90;82.10
18773;DHT22;9515;50.810;4.418;2022-08-11T18:46:41;31.90;82.60
18773;DHT22;9515;50.810;4.418;2022-08-11T18:49:34;31.90;83.60
18773;DHT22;9515;50.810;4.418;2022-08-11T18:52:19;31.80;84.00
18773;DHT22;9515;50.810;4.418;2022-08-11T18:55:08;31.70;84.50
18773;DHT22;9515;50.810;4.418;2022-08-11T18:57:55;31.50;84.90
18773;DHT22;9515;50.810;4.418;2022-08-11T19:00:41;31.40;85.90
18773;DHT22;9515;50.810;4.418;2022-08-11T19:03:27;31.40;86.10
18773;DHT22;9515;50.810;4.418;2022-08-11T19:06:14;31.30;86.80
18773;DHT22;9515;50.810;4.418;2022-08-11T19:09:00;31.20;87.80
18773;DHT22;9515;50.810;4.418;2022-08-11T19:11:46;31.10;88.60
18773;DHT22;9515;50.810;4.418;2022-08-11T19:14:31;31.10;90.10
18773;DHT22;9515;50.810;4.418;2022-08-11T19:17:16;31.00;90.40
18773;DHT22;9515;50.810;4.418;2022-08-11T19:20:04;30.90;90.60
18773;DHT22;9515;50.810;4.418;2022-08-11T19:22:50;30.70;90.80
18773;DHT22;9515;50.810;4.418;2022-08-11T19:25:36;30.60;90.40
18773;DHT22;9515;50.810;4.418;2022-08-11T19:28:22;30.50;90.50
18773;DHT22;9515;50.810;4.418;2022-08-11T19:31:08;30.40;90.70
18773;DHT22;9515;50.810;4.418;2022-08-11T19:33:54;30.20;90.50
18773;DHT22;9515;50.810;4.418;2022-08-11T19:36:40;30.10;90.60
18773;DHT22;9515;50.810;4.418;2022-08-11T19:39:26;30.00;90.70
18773;DHT22;9515;50.810;4.418;2022-08-11T19:42:11;30.00;90.60
18773;DHT22;9515;50.810;4.418;2022-08-11T19:44:57;30.00;90.50
18773;DHT22;9515;50.810;4.418;2022-08-11T19:47:44;30.00;90.70
18773;DHT22;9515;50.810;4.418;2022-08-11T19:50:30;29.90;90.70
18773;DHT22;9515;50.810;4.418;2022-08-11T19:53:15;29.80;91.10
18773;DHT22;9515;50.810;4.418;2022-08-11T19:55:59;29.70;91.30
18773;DHT22;9515;50.810;4.418;2022-08-11T19:58:44;29.50;91.50
18773;DHT22;9515;50.810;4.418;2022-08-11T20:01:29;29.50;91.70
18773;DHT22;9515;50.810;4.418;2022-08-11T20:04:13;29.40;91.90